Time;durP1;ratioP1;P1;durP2;ratioP2;P2;SDS_P1;SDS_P2;PMS_P1;PMS_P2;Temp;Humidity;BMP_temperature;BMP_pressure;BME280_temperature;BME280_humidity;BME280_pressure;Samples;Min_cycle;Max_cycle;Signal;HPM_P1;HPM_P2
2021/03/25 00:01:57;;;;;;;;;;;;;;;4.30;71.89;101420.77;1634822;87;20305;-79
2021/03/25 00:04:42;;;;;;;;;;;;;;;4.35;71.91;101423.84;1617077;87;20316;-80
2021/03/25 00:07:27;;;;;;;;;;;;;;;4.37;71.88;101420.90;1622407;86;20617;-80
2021/03/25 00:10:15;;;;;;;;;;;;;;;4.38;71.84;101422.22;1616487;86;21018;-80
2021/03/25 00:13:00;;;;;;;;;;;;;;;4.41;72.00;101418.86;1623324;86;20314;-79
2021/03/25 00:15:45;;;;;;;;;;;;;;;4.41;71.99;101413.32;1627135;86;20619;-80
2021/03/25 00:18:33;;;;;;;;;;;;;;;4.41;72.04;101412.04;1625309;86;20313;-80
2021/03/25 00:21:18;;;;;;;;;;;;;;;4.40;71.90;101410.31;1629260;85;20587;-78
2021/03/25 00:24:04;;;;;;;;;;;;;;;4.35;71.88;101409.34;1622897;85;20343;-78
2021/03/25 00:26:49;;;;;;;;;;;;;;;4.32;71.93;101412.70;1614914;85;20294;-78
2021/03/25 00:29:33;;;;;;;;;;;;;;;4.28;71.95;101402.36;1616504;85;20339;-78
2021/03/25 00:32:18;;;;;;;;;;;;;;;4.23;71.97;101409.06;1616993;85;330914;-78
2021/03/25 00:35:04;;;;;;;;;;;;;;;4.20;72.02;101410.28;1619424;85;20306;-78
2021/03/25 00:37:49;;;;;;;;;;;;;;;4.15;72.04;101412.77;1614792;85;20320;-78
2021/03/25 00:40:33;;;;;;;;;;;;;;;4.10;71.97;101410.93;1609962;86;20292;-79
2021/03/25 00:43:21;;;;;;;;;;;;;;;4.03;72.02;101409.92;1607929;86;20648;-79
2021/03/25 00:46:06;;;;;;;;;;;;;;;3.95;71.94;101410.16;1612734;87;20297;-79
2021/03/25 00:48:51;;;;;;;;;;;;;;;3.87;72.03;101406.13;1627792;86;20552;-79
2021/03/25 00:51:35;;;;;;;;;;;;;;;3.80;72.06;101401.70;1610119;87;20310;-78
2021/03/25 00:54:20;;;;;;;;;;;;;;;3.74;72.04;101403.24;1604737;86;20577;-79
2021/03/25 00:57:06;;;;;;;;;;;;;;;3.67;72.09;101399.66;1606677;87;20324;-79
2021/03/25 00:59:51;;;;;;;;;;;;;;;3.60;72.11;101401.23;1620830;86;20292;-79
2021/03/25 01:02:35;;;;;;;;;;;;;;;3.54;72.10;101398.94;1609600;86;20297;-79
2021/03/25 01:05:20;;;;;;;;;;;;;;;3.48;72.15;101403.90;1611501;86;20317;-78
2021/03/25 01:08:06;;;;;;;;;;;;;;;3.42;72.23;101393.10;1613464;86;20292;-78
2021/03/25 01:10:53;;;;;;;;;;;;;;;3.39;72.25;101391.74;1616807;86;20316;-78
2021/03/25 01:13:44;;;;;;;;;;;;;;;3.33;72.25;101386.06;1614329;86;20292;-79
2021/03/25 01:16:32;;;;;;;;;;;;;;;3.28;72.19;101385.08;1611605;86;20270;-79
2021/03/25 01:19:20;;;;;;;;;;;;;;;3.25;72.19;101382.86;1563345;90;20275;-79
2021/03/25 01:22:05;;;;;;;;;;;;;;;3.22;72.33;101384.92;1563206;90;20267;-79
2021/03/25 01:24:49;;;;;;;;;;;;;;;3.21;72.36;101380.62;1562122;90;20269;-79
2021/03/25 01:27:34;;;;;;;;;;;;;;;3.18;72.31;101381.83;1562976;91;20291;-79
2021/03/25 01:30:19;;;;;;;;;;;;;;;3.14;72.16;101380.42;1563374;90;20316;-79
2021/03/25 01:33:05;;;;;;;;;;;;;;;3.10;72.28;101378.65;1561129;91;20283;-79
2021/03/25 01:35:51;;;;;;;;;;;;;;;3.09;72.36;101373.95;1563100;91;20278;-79
2021/03/25 01:38:35;;;;;;;;;;;;;;;3.05;72.19;101370.86;1550408;91;20832;-79
2021/03/25 01:41:19;;;;;;;;;;;;;;;2.98;72.29;101366.41;1562123;91;20282;-79
2021/03/25 01:44:04;;;;;;;;;;;;;;;2.98;72.50;101363.45;1587383;89;20282;-78
2021/03/25 01:46:48;;;;;;;;;;;;;;;3.00;72.53;101363.48;1583314;90;20331;-78
2021/03/25 01:49:33;;;;;;;;;;;;;;;3.00;72.45;101364.77;1577486;89;20341;-78
2021/03/25 01:52:37;;;;;;;;;;;;;;;2.97;72.25;101360.85;1574026;91;20363;-78
2021/03/25 01:55:41;;;;;;;;;;;;;;;2.87;72.27;101357.19;1565765;87;20362;-78
2021/03/25 01:58:35;;;;;;;;;;;;;;;2.83;72.44;101357.92;1632932;85;20605;-78
2021/03/25 02:01:32;;;;;;;;;;;;;;;2.79;72.40;101362.91;1613245;86;20304;-78
2021/03/25 02:04:23;;;;;;;;;;;;;;;2.70;72.40;101362.23;1615099;86;20284;-79
2021/03/25 02:07:14;;;;;;;;;;;;;;;2.60;72.37;101361.55;1629329;85;20376;-78
2021/03/25 02:10:05;;;;;;;;;;;;;;;2.52;72.47;101365.16;1641033;85;20328;-78
2021/03/25 02:13:02;;;;;;;;;;;;;;;2.47;72.42;101364.16;1606638;86;20304;-79
2021/03/25 02:16:15;;;;;;;;;;;;;;;2.42;72.59;101361.89;1607202;88;20346;-78
2021/03/25 02:19:03;;;;;;;;;;;;;;;2.35;72.56;101358.70;1616544;86;20370;-78
2021/03/25 02:22:11;;;;;;;;;;;;;;;2.29;72.57;101355.97;1621049;85;20315;-78
2021/03/25 02:25:03;;;;;;;;;;;;;;;2.23;72.62;101358.34;1620485;85;20318;-78
2021/03/25 02:28:03;;;;;;;;;;;;;;;2.18;72.58;101359.48;1624480;85;20338;-78
2021/03/25 02:30:51;;;;;;;;;;;;;;;2.13;72.60;101352.50;1620907;85;20323;-78
2021/03/25 02:33:36;;;;;;;;;;;;;;;2.08;72.64;101354.92;1620473;85;20319;-79
2021/03/25 02:36:39;;;;;;;;;;;;;;;2.04;72.79;101345.88;1630222;85;20465;-79
2021/03/25 02:39:27;;;;;;;;;;;;;;;2.04;72.72;101344.61;1620740;85;20298;-79
2021/03/25 02:42:13;;;;;;;;;;;;;;;2.02;72.75;101342.02;1620226;85;20294;-79
2021/03/25 02:45:05;;;;;;;;;;;;;;;2.02;72.62;101342.02;1626084;85;20658;-79
2021/03/25 02:47:53;;;;;;;;;;;;;;;2.01;72.75;101341.97;1635561;85;20367;-79
2021/03/25 02:50:43;;;;;;;;;;;;;;;2.02;72.76;101336.05;1612627;86;20315;-79
2021/03/25 02:53:34;;;;;;;;;;;;;;;2.03;72.72;101342.88;1609239;85;20294;-79
2021/03/25 02:56:44;;;;;;;;;;;;;;;2.04;72.84;101339.51;1597117;87;20313;-79
2021/03/25 02:59:31;;;;;;;;;;;;;;;2.04;72.80;101344.61;1633822;85;20603;-79
2021/03/25 03:02:34;;;;;;;;;;;;;;;2.00;72.70;101338.55;1600574;86;20328;-79
2021/03/25 03:05:25;;;;;;;;;;;;;;;1.95;72.67;101342.64;1622280;86;20305;-79
2021/03/25 03:08:24;;;;;;;;;;;;;;;1.89;72.72;101343.31;1607007;86;20340;-78
2021/03/25 03:11:19;;;;;;;;;;;;;;;1.86;72.75;101342.36;1611207;87;20316;-78
2021/03/25 03:14:10;;;;;;;;;;;;;;;1.82;72.75;101335.02;1606685;87;20318;-79
2021/03/25 03:17:07;;;;;;;;;;;;;;;1.78;72.70;101340.84;1610999;86;21064;-79
2021/03/25 03:20:13;;;;;;;;;;;;;;;1.75;72.85;101339.88;1617963;86;20602;-78
2021/03/25 03:22:58;;;;;;;;;;;;;;;1.69;72.75;101341.83;1619821;86;20491;-78
2021/03/25 03:25:42;;;;;;;;;;;;;;;1.67;72.80;101340.91;1630871;86;20793;-78
2021/03/25 03:28:29;;;;;;;;;;;;;;;1.62;72.80;101342.05;1617245;86;20287;-78
2021/03/25 03:31:23;;;;;;;;;;;;;;;1.58;72.95;101349.13;1621898;86;20266;-78
2021/03/25 03:34:14;;;;;;;;;;;;;;;1.56;72.98;101341.84;1623685;86;20784;-78
2021/03/25 03:37:02;;;;;;;;;;;;;;;1.54;72.96;101346.47;1616822;86;20465;-78
2021/03/25 03:39:48;;;;;;;;;;;;;;;1.55;73.01;101350.75;1625646;86;20473;-78
2021/03/25 03:42:33;;;;;;;;;;;;;;;1.55;73.06;101344.38;1626989;86;20282;-79
2021/03/25 03:45:20;;;;;;;;;;;;;;;1.54;73.09;101342.23;1619173;86;20294;-79
2021/03/25 03:48:07;;;;;;;;;;;;;;;1.56;73.28;101343.56;1617208;86;20277;-79
2021/03/25 03:50:54;;;;;;;;;;;;;;;1.59;73.30;101339.80;1630451;86;20327;-79
2021/03/25 03:53:39;;;;;;;;;;;;;;;1.64;73.33;101340.81;1662576;84;20308;-79
2021/03/25 03:56:40;;;;;;;;;;;;;;;1.70;73.29;101341.02;1649396;84;20301;-79
2021/03/25 03:59:37;;;;;;;;;;;;;;;1.73;73.31;101343.66;1643121;84;20494;-79
2021/03/25 04:02:34;;;;;;;;;;;;;;;1.77;73.35;101332.73;1651725;84;20610;-78
2021/03/25 04:05:20;;;;;;;;;;;;;;;1.81;73.34;101328.60;1645459;84;20305;-78
2021/03/25 04:08:21;;;;;;;;;;;;;;;1.83;73.22;101325.28;1624221;84;20298;-78
2021/03/25 04:11:21;;;;;;;;;;;;;;;1.81;73.31;101326.05;1644741;84;20289;-78
2021/03/25 04:14:14;;;;;;;;;;;;;;;1.81;73.26;101324.37;1609910;86;20317;-78
2021/03/25 04:17:02;;;;;;;;;;;;;;;1.80;73.26;101321.77;1612550;86;20360;-78
2021/03/25 04:19:48;;;;;;;;;;;;;;;1.75;73.30;101316.94;1619311;86;20360;-78
2021/03/25 04:22:36;;;;;;;;;;;;;;;1.71;73.23;101330.00;1610820;86;20362;-79
2021/03/25 04:25:24;;;;;;;;;;;;;;;1.67;73.36;101325.63;1607931;86;20587;-78
2021/03/25 04:28:15;;;;;;;;;;;;;;;1.65;73.33;101324.30;1609400;86;20693;-78
2021/03/25 04:31:00;;;;;;;;;;;;;;;1.59;73.20;101325.78;1622152;87;20293;-78
2021/03/25 04:33:44;;;;;;;;;;;;;;;1.53;73.15;101326.90;1627687;86;20313;-78
2021/03/25 04:36:32;;;;;;;;;;;;;;;1.47;73.28;101324.16;1618627;86;20556;-79
2021/03/25 04:39:18;;;;;;;;;;;;;;;1.43;73.34;101329.55;1617131;86;20313;-78
2021/03/25 04:42:03;;;;;;;;;;;;;;;1.38;73.31;101328.54;1615362;86;20333;-78
2021/03/25 04:44:49;;;;;;;;;;;;;;;1.33;73.37;101324.97;1612202;87;20453;-78
2021/03/25 04:47:36;;;;;;;;;;;;;;;1.31;73.43;101326.20;1610200;86;20298;-78
2021/03/25 04:50:28;;;;;;;;;;;;;;;1.30;73.53;101323.59;1606690;86;20321;-79
2021/03/25 04:53:25;;;;;;;;;;;;;;;1.32;73.60;101325.80;1623763;87;20301;-79
2021/03/25 04:56:13;;;;;;;;;;;;;;;1.31;73.55;101327.47;1616040;87;20378;-78
2021/03/25 04:59:00;;;;;;;;;;;;;;;1.32;73.62;101326.66;1608880;86;20292;-78
2021/03/25 05:01:45;;;;;;;;;;;;;;;1.36;73.70;101334.40;1622114;87;20326;-78
2021/03/25 05:04:31;;;;;;;;;;;;;;;1.37;73.51;101330.62;1604493;86;20320;-78
2021/03/25 05:07:25;;;;;;;;;;;;;;;1.39;73.67;101331.55;1627770;86;20557;-79
2021/03/25 05:10:16;;;;;;;;;;;;;;;1.44;73.73;101335.11;1607687;86;20277;-78
2021/03/25 05:13:01;;;;;;;;;;;;;;;1.49;73.74;101332.71;1612036;86;20297;-78
2021/03/25 05:15:45;;;;;;;;;;;;;;;1.55;73.85;101333.77;1614705;86;20306;-78
2021/03/25 05:18:31;;;;;;;;;;;;;;;1.63;73.95;101336.13;1617021;86;20326;-78
2021/03/25 05:21:23;;;;;;;;;;;;;;;1.72;73.93;101341.92;1613713;86;20688;-78
2021/03/25 05:24:16;;;;;;;;;;;;;;;1.82;74.06;101337.58;1608955;87;20173;-78
2021/03/25 05:27:04;;;;;;;;;;;;;;;1.93;74.10;101340.05;1624248;86;20573;-78
2021/03/25 05:29:51;;;;;;;;;;;;;;;2.05;74.12;101338.69;1608255;87;20277;-78
2021/03/25 05:32:41;;;;;;;;;;;;;;;2.16;73.91;101341.98;1624506;86;20258;-78
2021/03/25 05:35:28;;;;;;;;;;;;;;;2.25;73.98;101340.98;1614213;86;20265;-78
2021/03/25 05:38:13;;;;;;;;;;;;;;;2.38;74.12;101337.52;1629269;85;20216;-78
2021/03/25 05:41:09;;;;;;;;;;;;;;;2.49;74.16;101340.83;1651031;85;20299;-78
2021/03/25 05:44:04;;;;;;;;;;;;;;;2.57;74.12;101340.63;1649332;85;20442;-78
2021/03/25 05:47:08;;;;;;;;;;;;;;;2.62;74.05;101339.45;1636939;85;20632;-78
2021/03/25 05:50:22;;;;;;;;;;;;;;;2.71;74.04;101343.95;1620915;86;21286;-78
2021/03/25 05:53:44;;;;;;;;;;;;;;;2.84;74.13;101337.94;1617892;86;20301;-78
2021/03/25 05:56:35;;;;;;;;;;;;;;;2.99;74.31;101342.59;1620092;86;20333;-78
2021/03/25 05:59:23;;;;;;;;;;;;;;;3.25;74.43;101339.41;1607018;87;20305;-78
2021/03/25 06:02:31;;;;;;;;;;;;;;;3.46;74.59;101331.00;1624946;86;20306;-78
2021/03/25 06:05:17;;;;;;;;;;;;;;;3.70;74.60;101339.64;1614338;86;20309;-78
2021/03/25 06:08:11;;;;;;;;;;;;;;;3.95;74.65;101330.84;1624109;86;20611;-78
2021/03/25 06:11:03;;;;;;;;;;;;;;;4.15;74.65;101332.14;1623175;86;20330;-77
2021/03/25 06:14:06;;;;;;;;;;;;;;;4.32;74.57;101335.03;1598346;87;20297;-78
2021/03/25 06:17:17;;;;;;;;;;;;;;;4.43;74.52;101333.98;1604133;86;20312;-81
2021/03/25 06:20:12;;;;;;;;;;;;;;;4.56;74.55;101338.52;1622226;86;20478;-81
2021/03/25 06:23:19;;;;;;;;;;;;;;;4.71;74.57;101343.05;1621104;86;20280;-81
2021/03/25 06:26:33;;;;;;;;;;;;;;;5.13;75.17;101334.02;1617098;86;20304;-81
2021/03/25 06:29:24;;;;;;;;;;;;;;;5.70;75.19;101337.95;1618956;86;20301;-81
2021/03/25 06:32:34;;;;;;;;;;;;;;;6.37;75.18;101347.00;1641265;85;20328;-81
2021/03/25 06:35:22;;;;;;;;;;;;;;;6.89;75.07;101347.17;1619163;86;20281;-81
2021/03/25 06:38:15;;;;;;;;;;;;;;;7.38;74.59;101344.63;1619475;86;20286;-82
2021/03/25 06:41:21;;;;;;;;;;;;;;;7.76;74.36;101343.66;1608578;86;20561;-82
2021/03/25 06:44:15;;;;;;;;;;;;;;;8.10;74.26;101342.56;1627700;86;20322;-78
2021/03/25 06:47:16;;;;;;;;;;;;;;;8.41;74.02;101346.16;1624608;86;20706;-77
2021/03/25 06:50:03;;;;;;;;;;;;;;;8.62;73.92;101343.25;1622653;86;20688;-78
2021/03/25 06:52:48;;;;;;;;;;;;;;;8.85;73.79;101344.58;1631377;86;20310;-78
2021/03/25 06:55:32;;;;;;;;;;;;;;;9.09;73.83;101347.66;1615322;86;20341;-78
2021/03/25 06:58:20;;;;;;;;;;;;;;;9.28;73.68;101345.53;1590611;87;20289;-78
2021/03/25 07:01:27;;;;;;;;;;;;;;;9.40;73.48;101342.50;1622776;86;20293;-78
2021/03/25 07:04:30;;;;;;;;;;;;;;;9.49;73.48;101338.63;1623994;86;20322;-78
2021/03/25 07:07:24;;;;;;;;;;;;;;;9.61;73.44;101341.22;1612800;86;20296;-78
2021/03/25 07:10:11;;;;;;;;;;;;;;;9.73;73.47;101342.93;1632078;85;20331;-78
2021/03/25 07:13:03;;;;;;;;;;;;;;;9.77;73.27;101349.39;1627674;86;20269;-79
2021/03/25 07:15:44;;;;;;;;;;;;;;;9.84;73.42;101348.95;1638882;85;20544;-78
2021/03/25 07:18:47;;;;;;;;;;;;;;;10.00;73.37;101356.22;1620621;86;20170;-78
2021/03/25 07:21:42;;;;;;;;;;;;;;;9.99;73.19;101355.78;1620644;86;20266;-78
2021/03/25 07:24:32;;;;;;;;;;;;;;;10.02;73.06;101353.20;1620526;86;20421;-78
2021/03/25 07:27:25;;;;;;;;;;;;;;;9.94;73.01;101354.07;1610484;87;20326;-77
2021/03/25 07:30:13;;;;;;;;;;;;;;;9.86;72.98;101348.52;1637448;85;20269;-78
2021/03/25 07:33:06;;;;;;;;;;;;;;;9.76;72.84;101356.70;1623022;86;20316;-78
2021/03/25 07:35:57;;;;;;;;;;;;;;;9.65;72.88;101361.02;1628493;86;20298;-78
2021/03/25 07:38:43;;;;;;;;;;;;;;;9.56;73.09;101351.55;1628727;86;20337;-79
2021/03/25 07:41:30;;;;;;;;;;;;;;;9.53;73.11;101355.42;1628594;86;20501;-79
2021/03/25 07:44:36;;;;;;;;;;;;;;;9.54;73.15;101357.14;1629097;86;20320;-79
2021/03/25 07:47:30;;;;;;;;;;;;;;;9.55;73.16;101356.70;1627876;86;20412;-79
2021/03/25 07:50:30;;;;;;;;;;;;;;;9.52;73.17;101350.25;1637686;85;20342;-79
2021/03/25 07:53:27;;;;;;;;;;;;;;;9.51;73.10;101346.81;1639193;85;20335;-79
2021/03/25 07:56:15;;;;;;;;;;;;;;;9.48;73.03;101349.82;1635340;85;20318;-78
2021/03/25 07:59:00;;;;;;;;;;;;;;;9.47;73.15;101354.12;1635495;85;20316;-78
2021/03/25 08:01:48;;;;;;;;;;;;;;;9.48;73.11;101356.27;1618484;86;20316;-79
2021/03/25 08:04:33;;;;;;;;;;;;;;;9.53;73.14;101357.14;1621098;86;20629;-79
2021/03/25 08:07:19;;;;;;;;;;;;;;;9.56;73.13;101362.30;1620085;86;20286;-79
2021/03/25 08:10:05;;;;;;;;;;;;;;;9.61;73.18;101362.73;1621637;86;20281;-77
2021/03/25 08:12:50;;;;;;;;;;;;;;;9.69;73.17;101359.29;1626187;86;20317;-78
2021/03/25 08:15:43;;;;;;;;;;;;;;;9.77;73.15;101359.72;1624135;86;20297;-79
2021/03/25 08:18:44;;;;;;;;;;;;;;;9.85;73.07;101362.30;1625786;86;20330;-78
2021/03/25 08:21:44;;;;;;;;;;;;;;;9.94;72.97;101372.16;1605242;87;20606;-79
2021/03/25 08:24:32;;;;;;;;;;;;;;;10.03;72.98;101378.17;1631138;86;20326;-79
2021/03/25 08:27:23;;;;;;;;;;;;;;;10.14;73.10;101375.14;1627962;86;20310;-79
2021/03/25 08:30:15;;;;;;;;;;;;;;;10.25;73.07;101370.41;1625287;86;20685;-79
2021/03/25 08:33:03;;;;;;;;;;;;;;;10.31;72.84;101366.95;1630475;86;20343;-79
2021/03/25 08:36:08;;;;;;;;;;;;;;;10.35;72.75;101365.22;1627015;86;20963;-79
2021/03/25 08:39:26;;;;;;;;;;;;;;;10.36;72.68;101365.21;1620365;86;20341;-78
2021/03/25 08:42:31;;;;;;;;;;;;;;;10.38;72.69;101362.19;1629109;87;20261;-79
2021/03/25 08:45:19;;;;;;;;;;;;;;;10.45;72.82;101354.81;1623442;86;20287;-76
2021/03/25 08:48:13;;;;;;;;;;;;;;;10.58;72.83;101356.92;1641972;85;20256;-76
2021/03/25 08:51:13;;;;;;;;;;;;;;;10.71;72.85;101352.55;1624962;86;20478;-76
2021/03/25 08:54:15;;;;;;;;;;;;;;;10.82;72.78;101350.78;1584365;86;20846;-78
2021/03/25 08:57:09;;;;;;;;;;;;;;;10.93;72.71;101351.55;1637940;85;20268;-78
2021/03/25 09:00:09;;;;;;;;;;;;;;;11.01;72.58;101345.03;1625051;86;20465;-78
2021/03/25 09:03:09;;;;;;;;;;;;;;;11.05;72.54;101346.73;1636326;85;20832;-77
2021/03/25 09:06:00;;;;;;;;;;;;;;;11.10;72.53;101351.02;1621094;86;20195;-78
2021/03/25 09:08:46;;;;;;;;;;;;;;;11.19;72.50;101343.19;1619655;86;20266;-78
2021/03/25 09:11:30;;;;;;;;;;;;;;;11.25;72.47;101339.27;1638611;85;20284;-78
2021/03/25 09:14:22;;;;;;;;;;;;;;;11.35;72.47;101338.77;1624259;86;20293;-77
2021/03/25 09:17:10;;;;;;;;;;;;;;;11.48;72.54;101341.66;1603403;87;20296;-78
2021/03/25 09:19:57;;;;;;;;;;;;;;;11.62;72.50;101341.54;1638495;85;20295;-78
2021/03/25 09:22:57;;;;;;;;;;;;;;;11.72;72.35;101343.18;1627193;86;20907;-79
2021/03/25 09:25:39;;;;;;;;;;;;;;;11.83;72.30;101344.41;1656916;84;20296;-78
2021/03/25 09:28:23;;;;;;;;;;;;;;;11.96;72.24;101342.56;1655038;84;20562;-78
2021/03/25 09:31:12;;;;;;;;;;;;;;;12.02;72.08;101344.63;1659229;84;20287;-78
2021/03/25 09:33:58;;;;;;;;;;;;;;;12.07;71.94;101344.58;1657291;84;20423;-79
2021/03/25 09:36:48;;;;;;;;;;;;;;;12.11;72.02;101343.23;1655919;84;20702;-78
2021/03/25 09:39:35;;;;;;;;;;;;;;;12.17;72.02;101341.02;1652862;84;20311;-78
2021/03/25 09:42:23;;;;;;;;;;;;;;;12.25;72.05;101338.76;1651860;84;20318;-78
2021/03/25 09:45:14;;;;;;;;;;;;;;;12.33;71.87;101334.78;1659566;84;20308;-78
2021/03/25 09:48:01;;;;;;;;;;;;;;;12.38;71.76;101333.44;1655031;84;20322;-78
2021/03/25 09:51:01;;;;;;;;;;;;;;;12.40;71.69;101330.38;1633220;84;20308;-78
2021/03/25 09:53:59;;;;;;;;;;;;;;;12.46;71.57;101326.42;1659203;84;20295;-78
2021/03/25 09:56:44;;;;;;;;;;;;;;;12.50;71.62;101328.92;1658624;84;20429;-78
2021/03/25 09:59:49;;;;;;;;;;;;;;;12.58;71.61;101329.69;1651348;84;20290;-78
2021/03/25 10:02:50;;;;;;;;;;;;;;;12.62;71.29;101330.95;1652508;84;20304;-77
2021/03/25 10:05:35;;;;;;;;;;;;;;;12.64;71.29;101329.19;1652213;84;20624;-79
2021/03/25 10:08:24;;;;;;;;;;;;;;;12.68;71.25;101329.13;1634741;84;20321;-78
2021/03/25 10:11:28;;;;;;;;;;;;;;;12.76;71.24;101327.73;1643085;84;21171;-78
2021/03/25 10:14:48;;;;;;;;;;;;;;;12.83;71.23;101328.07;1653594;84;20310;-78
2021/03/25 10:17:44;;;;;;;;;;;;;;;12.93;71.13;101327.06;1654375;84;20338;-79
2021/03/25 10:20:52;;;;;;;;;;;;;;;13.03;70.96;101328.61;1651945;85;20299;-79
2021/03/25 10:23:52;;;;;;;;;;;;;;;13.07;70.90;101317.30;1642803;86;20354;-78
2021/03/25 10:26:40;;;;;;;;;;;;;;;13.13;70.89;101315.06;1635493;85;20591;-78
2021/03/25 10:29:31;;;;;;;;;;;;;;;13.21;70.77;101314.53;1622739;86;20472;-77
2021/03/25 10:32:29;;;;;;;;;;;;;;;13.24;70.62;101311.89;1611738;86;20316;-78
2021/03/25 10:35:26;;;;;;;;;;;;;;;13.24;70.50;101313.19;1619273;86;20317;-79
2021/03/25 10:38:13;;;;;;;;;;;;;;;13.25;70.53;101313.16;1640372;85;20314;-78
2021/03/25 10:41:02;;;;;;;;;;;;;;;13.30;70.36;101309.63;1642393;85;20328;-78
2021/03/25 10:43:49;;;;;;;;;;;;;;;13.27;70.38;101304.05;1622317;86;20290;-78
2021/03/25 10:46:36;;;;;;;;;;;;;;;13.28;70.35;101306.20;1634747;85;20202;-78
2021/03/25 10:49:24;;;;;;;;;;;;;;;13.31;70.27;101307.45;1624028;86;20314;-78
2021/03/25 10:52:21;;;;;;;;;;;;;;;13.34;70.17;101293.12;1612323;86;20189;-78
2021/03/25 10:55:21;;;;;;;;;;;;;;;13.36;70.02;101298.70;1620855;86;20265;-78
2021/03/25 10:58:06;;;;;;;;;;;;;;;13.36;69.99;101294.81;1628797;86;20274;-78
2021/03/25 11:01:03;;;;;;;;;;;;;;;13.34;69.95;101288.78;1627431;86;20306;-78
2021/03/25 11:03:49;;;;;;;;;;;;;;;13.33;69.87;101287.51;1626871;86;20459;-78
2021/03/25 11:06:36;;;;;;;;;;;;;;;13.34;69.89;101289.22;1625009;86;20459;-78
2021/03/25 11:09:29;;;;;;;;;;;;;;;13.35;69.77;101285.30;1626996;86;20266;-78
2021/03/25 11:12:19;;;;;;;;;;;;;;;13.38;69.71;101286.99;1628235;86;20645;-78
2021/03/25 11:15:17;;;;;;;;;;;;;;;13.39;69.57;101284.81;1633237;86;21054;-78
2021/03/25 11:18:11;;;;;;;;;;;;;;;13.41;69.67;101285.20;1621451;86;20285;-78
2021/03/25 11:20:56;;;;;;;;;;;;;;;13.47;69.70;101281.20;1617170;86;20300;-77
2021/03/25 11:23:41;;;;;;;;;;;;;;;13.51;69.41;101284.60;1620807;86;20356;-77
2021/03/25 11:26:25;;;;;;;;;;;;;;;13.50;69.28;101280.29;1646093;84;20306;-77
2021/03/25 11:29:14;;;;;;;;;;;;;;;13.51;69.36;101274.21;1641551;84;20310;-76
2021/03/25 11:32:14;;;;;;;;;;;;;;;13.56;69.45;101276.25;1655786;85;20550;-77
2021/03/25 11:35:02;;;;;;;;;;;;;;;13.58;69.23;101277.94;1639576;85;20309;-75
2021/03/25 11:37:47;;;;;;;;;;;;;;;13.58;69.12;101276.64;1654376;85;20335;-76
2021/03/25 11:40:42;;;;;;;;;;;;;;;13.64;69.16;101269.19;1650958;84;20598;-76
2021/03/25 11:43:53;;;;;;;;;;;;;;;13.68;68.92;101266.94;1647859;84;20618;-77
2021/03/25 11:46:40;;;;;;;;;;;;;;;13.71;68.80;101272.09;1648646;85;20953;-76
2021/03/25 11:49:31;;;;;;;;;;;;;;;13.75;68.76;101266.39;1654948;84;20597;-76
2021/03/25 11:52:13;;;;;;;;;;;;;;;13.80;68.78;101262.81;1623668;85;21058;-76
2021/03/25 11:55:00;;;;;;;;;;;;;;;13.86;68.69;101265.30;1661091;84;20325;-75
2021/03/25 11:57:45;;;;;;;;;;;;;;;13.89;68.55;101257.44;1653613;84;20285;-75
2021/03/25 12:00:30;;;;;;;;;;;;;;;13.95;68.57;101260.37;1656372;84;20291;-75
2021/03/25 12:03:16;;;;;;;;;;;;;;;13.96;68.46;101258.19;1636382;86;20293;-75
2021/03/25 12:06:01;;;;;;;;;;;;;;;14.00;68.51;101258.98;1620896;86;20393;-75
2021/03/25 12:08:45;;;;;;;;;;;;;;;14.03;68.40;101262.38;1643915;85;20221;-75
2021/03/25 12:11:35;;;;;;;;;;;;;;;14.11;68.40;101268.25;1644737;85;20287;-75
2021/03/25 12:14:21;;;;;;;;;;;;;;;14.16;68.31;101259.05;1642237;85;20315;-75
2021/03/25 12:17:08;;;;;;;;;;;;;;;14.23;68.23;101254.14;1654399;85;20310;-75
2021/03/25 12:19:52;;;;;;;;;;;;;;;14.26;68.07;101254.08;1651490;85;20302;-76
2021/03/25 12:22:40;;;;;;;;;;;;;;;14.27;68.03;101253.19;1655352;85;298360;-76
2021/03/25 12:25:23;;;;;;;;;;;;;;;14.23;67.94;101251.09;1631563;86;20295;-76
2021/03/25 12:28:11;;;;;;;;;;;;;;;14.18;67.89;101252.94;1651884;85;20297;-76
2021/03/25 12:30:56;;;;;;;;;;;;;;;14.19;67.96;101252.05;1654607;85;20333;-76
2021/03/25 12:33:40;;;;;;;;;;;;;;;14.22;67.89;101246.78;1650533;85;20348;-76
2021/03/25 12:36:25;;;;;;;;;;;;;;;14.23;67.82;101241.99;1653722;85;20593;-76
2021/03/25 12:39:10;;;;;;;;;;;;;;;14.21;67.77;101246.81;1632371;86;20325;-76
2021/03/25 12:41:57;;;;;;;;;;;;;;;14.17;67.65;101242.56;1646289;85;20296;-75
2021/03/25 12:44:41;;;;;;;;;;;;;;;14.11;67.64;101242.69;1638314;85;20338;-76
2021/03/25 12:47:26;;;;;;;;;;;;;;;14.12;67.74;101244.40;1652102;85;20275;-76
2021/03/25 12:50:11;;;;;;;;;;;;;;;14.18;67.67;101240.37;1653298;85;20189;-76
2021/03/25 12:52:55;;;;;;;;;;;;;;;14.19;67.45;101230.38;1641326;85;20270;-77
2021/03/25 12:55:40;;;;;;;;;;;;;;;14.18;67.38;101237.33;1654950;85;20281;-76
2021/03/25 12:58:33;;;;;;;;;;;;;;;14.18;67.37;101233.42;1651389;85;20500;-76
2021/03/25 13:01:24;;;;;;;;;;;;;;;14.20;67.34;101232.09;1650472;85;20271;-76
2021/03/25 13:04:09;;;;;;;;;;;;;;;14.24;67.34;101235.05;1649952;84;20284;-76
2021/03/25 13:06:53;;;;;;;;;;;;;;;14.30;67.36;101228.41;1647281;85;20189;-76
2021/03/25 13:09:37;;;;;;;;;;;;;;;14.37;67.15;101222.63;1645956;85;20251;-76
2021/03/25 13:12:24;;;;;;;;;;;;;;;14.46;67.20;101222.47;1649851;85;20256;-76
2021/03/25 13:15:09;;;;;;;;;;;;;;;14.53;67.08;101215.79;1643242;85;20288;-76
2021/03/25 13:17:54;;;;;;;;;;;;;;;14.61;67.03;101217.33;1646389;85;20293;-76
2021/03/25 13:20:38;;;;;;;;;;;;;;;14.70;66.95;101219.28;1647806;85;20261;-76
2021/03/25 13:23:24;;;;;;;;;;;;;;;14.75;66.82;101212.66;1648305;85;20628;-76
2021/03/25 13:26:09;;;;;;;;;;;;;;;14.80;66.81;101213.41;1567050;89;20316;-76
2021/03/25 13:28:54;;;;;;;;;;;;;;;14.84;66.69;101215.05;1588186;89;20317;-76
2021/03/25 13:31:39;;;;;;;;;;;;;;;14.80;66.55;101207.76;1598419;89;20281;-76
2021/03/25 13:34:24;;;;;;;;;;;;;;;14.80;66.60;101203.85;1575042;89;20340;-75
2021/03/25 13:37:08;;;;;;;;;;;;;;;14.77;66.55;101200.02;1590285;89;20307;-76
2021/03/25 13:39:53;;;;;;;;;;;;;;;14.77;66.58;101196.11;1606685;87;20280;-76
2021/03/25 13:42:38;;;;;;;;;;;;;;;14.82;66.48;101196.00;1615344;87;20276;-75
2021/03/25 13:45:24;;;;;;;;;;;;;;;14.84;66.49;101193.77;1614173;87;20334;-76
2021/03/25 13:48:08;;;;;;;;;;;;;;;14.91;66.45;101195.78;1614303;87;20327;-75
2021/03/25 13:50:54;;;;;;;;;;;;;;;14.95;66.37;101191.36;1617581;87;20630;-76
2021/03/25 13:53:39;;;;;;;;;;;;;;;14.92;66.24;101192.73;1622151;87;20224;-76
2021/03/25 13:56:23;;;;;;;;;;;;;;;14.88;66.21;101195.41;1625079;87;20404;-76
2021/03/25 13:59:08;;;;;;;;;;;;;;;14.85;66.18;101195.48;1618015;87;20288;-75
2021/03/25 14:01:53;;;;;;;;;;;;;;;14.83;66.09;101186.00;1601103;87;20303;-77
2021/03/25 14:04:37;;;;;;;;;;;;;;;14.85;66.13;101188.98;1599116;87;20290;-77
2021/03/25 14:07:22;;;;;;;;;;;;;;;14.90;66.11;101187.11;1609324;87;20307;-77
2021/03/25 14:10:07;;;;;;;;;;;;;;;14.90;66.04;101184.52;1598324;87;20336;-77
2021/03/25 14:12:52;;;;;;;;;;;;;;;14.92;65.97;101185.77;1584488;87;20310;-77
2021/03/25 14:15:40;;;;;;;;;;;;;;;14.96;66.04;101183.50;1602718;87;20331;-77
2021/03/25 14:18:26;;;;;;;;;;;;;;;14.98;65.79;101185.63;1602225;88;20435;-77
2021/03/25 14:21:10;;;;;;;;;;;;;;;14.92;65.66;101192.28;1607973;87;20305;-77
2021/03/25 14:23:56;;;;;;;;;;;;;;;14.85;65.51;101185.52;1628265;85;20280;-77
2021/03/25 14:26:40;;;;;;;;;;;;;;;14.78;65.43;101183.50;1618871;86;20400;-77
2021/03/25 14:29:24;;;;;;;;;;;;;;;14.71;65.45;101183.24;1612730;86;20333;-77
2021/03/25 14:32:09;;;;;;;;;;;;;;;14.66;65.40;101182.50;1617649;86;20277;-76
2021/03/25 14:34:54;;;;;;;;;;;;;;;14.62;65.42;101181.30;1637054;87;20380;-76
2021/03/25 14:37:38;;;;;;;;;;;;;;;14.55;65.31;101187.13;1627023;87;20292;-76
2021/03/25 14:40:24;;;;;;;;;;;;;;;14.49;65.26;101185.52;1615856;86;20316;-76
2021/03/25 14:43:10;;;;;;;;;;;;;;;14.44;65.25;101185.22;1626233;86;33082;-76